createdAt,value
2023-02-06T00:04:56.927Z,100357.34
2023-02-06T00:09:58.598Z,100351.31
2023-02-06T00:15:00.261Z,100355.63
2023-02-06T00:20:02.354Z,100355.38
2023-02-06T00:25:04.652Z,100360.81
2023-02-06T00:30:06.815Z,100371.34
2023-02-06T00:35:08.803Z,100364.78
2023-02-06T00:40:10.981Z,100362.16
2023-02-06T00:45:12.700Z,100373.06
2023-02-06T00:50:14.441Z,100394.34
2023-02-06T00:55:16.236Z,100387.97
2023-02-06T01:00:18.279Z,100390.53
2023-02-06T01:05:20.088Z,100394.72
2023-02-06T01:10:21.856Z,100387.66
2023-02-06T01:15:23.518Z,100399.66
2023-02-06T01:20:25.285Z,100392.03
2023-02-06T01:25:27.029Z,100398.97
2023-02-06T01:30:28.726Z,100409.47
2023-02-06T01:35:30.424Z,100408.47
2023-02-06T01:40:32.100Z,100404.91
2023-02-06T01:45:53.108Z,100412.66
2023-02-06T01:50:57.438Z,100416.66
2023-02-06T01:56:02.000Z,100422.47
2023-02-06T02:01:05.370Z,100412.00
2023-02-06T02:06:11.362Z,100410.50
2023-02-06T02:11:20.342Z,100418.94
2023-02-06T02:17:00.734Z,100404.38
2023-02-06T02:22:34.331Z,100410.31
2023-02-06T02:27:55.533Z,100407.72
2023-02-06T02:33:06.143Z,100414.97
2023-02-06T02:38:13.785Z,100411.38
2023-02-06T02:43:22.738Z,100411.56
2023-02-06T02:48:30.146Z,100408.72
2023-02-06T02:53:32.303Z,100415.34
2023-02-06T02:58:35.782Z,100402.59
2023-02-06T03:03:42.749Z,100409.75
2023-02-06T03:09:03.126Z,100392.94
2023-02-06T03:14:39.387Z,100412.81
2023-02-06T03:19:48.559Z,100416.75
2023-02-06T03:24:52.609Z,100428.25
2023-02-06T03:29:56.158Z,100431.00
2023-02-06T03:35:19.983Z,100419.59
2023-02-06T03:40:21.944Z,100421.69
2023-02-06T03:45:29.131Z,100421.31
2023-02-06T03:50:34.883Z,100419.50
2023-02-06T03:55:38.661Z,100431.09
2023-02-06T04:00:42.958Z,100432.78
2023-02-06T04:05:44.637Z,100437.06
2023-02-06T04:10:46.266Z,100439.31
2023-02-06T04:15:47.917Z,100445.72
2023-02-06T04:20:52.243Z,100431.56
2023-02-06T04:25:53.992Z,100432.78
2023-02-06T04:30:55.831Z,100430.78
2023-02-06T04:35:57.545Z,100448.50
2023-02-06T04:41:06.090Z,100438.22
2023-02-06T04:46:07.793Z,100437.22
2023-02-06T04:51:09.818Z,100446.19
2023-02-06T04:56:12.870Z,100444.50
2023-02-06T05:01:16.900Z,100437.47
2023-02-06T05:06:18.669Z,100433.34
2023-02-06T05:11:20.296Z,100443.50
2023-02-06T05:16:22.050Z,100442.03
2023-02-06T05:21:25.222Z,100440.72
2023-02-06T05:26:26.903Z,100452.78
2023-02-06T05:31:29.133Z,100450.59
2023-02-06T05:36:30.837Z,100448.06
2023-02-06T05:41:32.726Z,100455.47
2023-02-06T05:46:34.492Z,100449.66
2023-02-06T05:51:36.211Z,100444.06
2023-02-06T05:56:37.916Z,100451.91
2023-02-06T06:01:39.564Z,100438.91
2023-02-06T06:06:41.879Z,100439.34
2023-02-06T06:11:43.791Z,100425.78
2023-02-06T06:16:45.474Z,100433.00
2023-02-06T06:21:47.137Z,100438.00
2023-02-06T06:26:48.810Z,100421.94
2023-02-06T06:31:50.561Z,100422.63
2023-02-06T06:36:52.294Z,100418.28
2023-02-06T06:41:54.173Z,100416.53
2023-02-06T06:46:55.851Z,100418.63
2023-02-06T06:51:57.526Z,100431.28
2023-02-06T06:56:59.172Z,100433.94
2023-02-06T07:02:00.785Z,100441.78
2023-02-06T07:07:02.502Z,100448.22
2023-02-06T07:12:05.104Z,100444.13
2023-02-06T07:17:06.830Z,100432.84
2023-02-06T07:22:08.513Z,100439.50
2023-02-06T07:27:10.605Z,100437.78
2023-02-06T07:32:12.340Z,100443.94
2023-02-06T07:37:14.168Z,100432.94
2023-02-06T07:42:15.842Z,100429.25
2023-02-06T07:47:17.703Z,100422.03
2023-02-06T07:52:22.058Z,100430.03
2023-02-06T07:57:23.696Z,100436.72
2023-02-06T08:02:25.449Z,100425.00
2023-02-06T08:07:27.304Z,100436.53
2023-02-06T08:12:32.019Z,100429.50
2023-02-06T08:17:33.752Z,100426.81
2023-02-06T08:22:35.412Z,100428.81
2023-02-06T08:27:37.198Z,100434.28
2023-02-06T08:32:39.418Z,100431.19
2023-02-06T08:37:41.092Z,100436.34
2023-02-06T08:42:42.788Z,100438.44
2023-02-06T08:47:44.392Z,100433.13
2023-02-06T08:52:46.102Z,100428.44
2023-02-06T08:57:47.735Z,100433.38
2023-02-06T09:02:49.524Z,100435.88
2023-02-06T09:07:51.245Z,100416.84
2023-02-06T09:12:54.397Z,100428.13
2023-02-06T09:17:56.104Z,100436.13
2023-02-06T09:22:57.864Z,100439.69
2023-02-06T09:27:59.582Z,100438.50
2023-02-06T09:33:01.338Z,100464.16
2023-02-06T09:38:03.155Z,100456.75
2023-02-06T09:43:05.066Z,100464.44
2023-02-06T09:48:19.673Z,100451.94
2023-02-06T09:53:30.567Z,100456.84
2023-02-06T09:58:53.898Z,100446.63
2023-02-06T10:04:01.945Z,100442.56
2023-02-06T10:09:11.644Z,100427.78
2023-02-06T10:14:22.374Z,100432.47
2023-02-06T10:19:48.262Z,100423.31
2023-02-06T10:25:15.287Z,100417.63
2023-02-06T10:30:20.753Z,100407.53
2023-02-06T10:35:51.811Z,100399.28
2023-02-06T10:41:18.682Z,100394.66
2023-02-06T10:46:26.302Z,100380.53
2023-02-06T10:51:38.614Z,100358.25
2023-02-06T10:56:46.844Z,100349.50
2023-02-06T11:01:52.177Z,100340.28
2023-02-06T11:07:01.054Z,100346.19
2023-02-06T11:12:03.828Z,100333.88
2023-02-06T11:17:05.549Z,100323.84
2023-02-06T11:22:07.401Z,100322.84
2023-02-06T11:27:20.682Z,100310.72
2023-02-06T11:32:40.836Z,100312.91
2023-02-06T11:37:42.765Z,100307.56
2023-02-06T11:42:46.112Z,100306.78
2023-02-06T11:47:47.784Z,100298.41
2023-02-06T11:52:49.937Z,100295.19
2023-02-06T11:58:23.196Z,100282.88
2023-02-06T12:03:31.213Z,100287.47
2023-02-06T12:08:55.058Z,100286.22
2023-02-06T12:14:03.622Z,100287.00
2023-02-06T12:19:12.068Z,100295.28
2023-02-06T12:24:36.159Z,100277.44
2023-02-06T12:29:43.659Z,100266.69
2023-02-06T12:35:00.636Z,100259.19
2023-02-06T12:40:02.486Z,100252.00
2023-02-06T12:45:25.268Z,100249.50
2023-02-06T12:50:55.391Z,100238.41
2023-02-06T12:56:29.501Z,100236.53
2023-02-06T13:01:58.287Z,100242.63
2023-02-06T13:07:05.279Z,100238.34
2023-02-06T13:12:13.843Z,100244.75
2023-02-06T13:17:20.695Z,100239.56
2023-02-06T13:22:36.868Z,100241.53
2023-02-06T13:27:40.084Z,100240.72
2023-02-06T13:32:45.419Z,100237.47
2023-02-06T13:37:48.562Z,100233.97
2023-02-06T13:43:11.285Z,100244.09
2023-02-06T13:48:27.873Z,100248.56
2023-02-06T13:53:48.161Z,100235.56
2023-02-06T13:58:56.056Z,100228.84
2023-02-06T14:03:58.470Z,100232.41
2023-02-06T14:09:30.746Z,100224.78
2023-02-06T14:14:47.718Z,100210.47
2023-02-06T14:20:03.487Z,100212.16
2023-02-06T14:25:05.471Z,100223.31
2023-02-06T14:30:22.306Z,100214.56
2023-02-06T14:35:42.784Z,100212.06
2023-02-06T14:40:49.336Z,100214.72
2023-02-06T14:46:06.779Z,100217.16
2023-02-06T14:51:25.378Z,100218.91
2023-02-06T14:56:33.291Z,100224.13
2023-02-06T15:01:35.113Z,100230.88
2023-02-06T15:06:40.115Z,100221.38
2023-02-06T15:11:41.860Z,100229.88
2023-02-06T15:16:48.311Z,100242.88
2023-02-06T15:21:51.365Z,100235.13
2023-02-06T15:27:11.244Z,100242.75
2023-02-06T15:32:35.490Z,100243.44
2023-02-06T15:37:37.190Z,100233.13
2023-02-06T15:42:39.074Z,100240.09
2023-02-06T15:47:42.466Z,100244.34
2023-02-06T15:52:47.378Z,100238.31
2023-02-06T15:57:49.994Z,100231.28
2023-02-06T16:02:54.946Z,100252.06
2023-02-06T16:07:57.062Z,100251.13
2023-02-06T16:13:01.828Z,100256.34
2023-02-06T16:18:24.813Z,100259.78
2023-02-06T16:23:29.454Z,100266.75
2023-02-06T16:28:31.479Z,100275.31
2023-02-06T16:33:36.057Z,100282.22
2023-02-06T16:38:37.675Z,100285.66
2023-02-06T16:43:39.353Z,100295.16
2023-02-06T16:48:41.242Z,100295.09
2023-02-06T16:53:44.232Z,100296.59
2023-02-06T16:58:46.868Z,100308.03
2023-02-06T17:03:51.264Z,100330.63
2023-02-06T17:08:55.839Z,100340.09
2023-02-06T17:13:57.572Z,100344.38
2023-02-06T17:18:59.687Z,100348.63
2023-02-06T17:24:01.977Z,100357.19
2023-02-06T17:29:04.021Z,100370.16
2023-02-06T17:34:05.878Z,100378.69
2023-02-06T17:39:07.848Z,100390.94
2023-02-06T17:44:11.787Z,100382.22
2023-02-06T17:49:14.807Z,100394.28
2023-02-06T17:54:16.743Z,100392.47
2023-02-06T17:59:18.421Z,100388.91
2023-02-06T18:04:21.459Z,100400.28
2023-02-06T18:09:23.221Z,100411.59
2023-02-06T18:14:25.238Z,100411.31
2023-02-06T18:19:29.113Z,100417.34
2023-02-06T18:24:31.387Z,100415.03
2023-02-06T18:29:48.452Z,100429.00
2023-02-06T18:34:52.269Z,100442.81
2023-02-06T18:39:58.139Z,100428.31
2023-02-06T18:45:02.118Z,100434.28
2023-02-06T18:50:06.750Z,100440.31
2023-02-06T18:55:09.470Z,100434.91
2023-02-06T19:00:14.712Z,100436.91
2023-02-06T19:05:17.562Z,100436.72
2023-02-06T19:10:21.117Z,100448.84
2023-02-06T19:15:23.680Z,100455.44
2023-02-06T19:20:26.112Z,100464.19
2023-02-06T19:25:28.580Z,100465.69
2023-02-06T19:30:31.030Z,100479.59
2023-02-06T19:35:33.681Z,100475.28
2023-02-06T19:40:37.217Z,100481.78
2023-02-06T19:45:40.228Z,100480.38
2023-02-06T19:50:43.966Z,100487.69
2023-02-06T19:55:49.720Z,100481.47
2023-02-06T20:00:55.099Z,100482.22
2023-02-06T20:06:01.772Z,100494.09
2023-02-06T20:11:08.710Z,100494.59
2023-02-06T20:16:20.205Z,100498.69
2023-02-06T20:21:31.563Z,100505.69
2023-02-06T20:26:38.146Z,100516.56
2023-02-06T20:31:42.223Z,100519.38
2023-02-06T20:36:45.361Z,100524.75
2023-02-06T20:41:49.609Z,100528.53
2023-02-06T20:46:51.699Z,100522.16
2023-02-06T20:51:54.568Z,100522.25
2023-02-06T20:56:56.807Z,100519.59
2023-02-06T21:01:59.225Z,100528.22
2023-02-06T21:07:01.205Z,100528.06
2023-02-06T21:12:03.261Z,100540.47
2023-02-06T21:17:05.044Z,100554.72
2023-02-06T21:22:06.796Z,100549.53
2023-02-06T21:27:08.652Z,100534.84
2023-02-06T21:32:13.885Z,100551.03
2023-02-06T21:37:16.116Z,100538.72
2023-02-06T21:42:20.578Z,100544.97
2023-02-06T21:47:22.221Z,100545.66
2023-02-06T21:52:23.907Z,100555.75
2023-02-06T21:57:26.615Z,100558.53
2023-02-06T22:02:28.354Z,100565.22
2023-02-06T22:07:30.088Z,100569.19
2023-02-06T22:12:32.099Z,100569.84
2023-02-06T22:17:34.794Z,100561.19
2023-02-06T22:22:37.481Z,100565.69
2023-02-06T22:27:39.600Z,100561.72
2023-02-06T22:32:41.279Z,100576.56
2023-02-06T22:37:44.574Z,100574.41
2023-02-06T22:42:46.318Z,100581.84
2023-02-06T22:47:48.039Z,100586.75
2023-02-06T22:53:08.168Z,100580.47
2023-02-06T22:58:09.809Z,100580.31
2023-02-06T23:03:11.460Z,100580.16
2023-02-06T23:08:13.119Z,100587.81
2023-02-06T23:13:14.832Z,100592.56
2023-02-06T23:18:17.137Z,100593.25
2023-02-06T23:23:18.738Z,100587.53
2023-02-06T23:28:21.919Z,100588.97
2023-02-06T23:33:23.933Z,100592.25
2023-02-06T23:38:25.588Z,100603.75
2023-02-06T23:43:27.234Z,100594.91
2023-02-06T23:48:28.949Z,100587.69
2023-02-06T23:53:30.921Z,100596.91
2023-02-06T23:58:32.556Z,100593.25
